Time;durP1;ratioP1;P1;durP2;ratioP2;P2;SDS_P1;SDS_P2;PMS_P1;PMS_P2;Temp;Humidity;BMP_temperature;BMP_pressure;BME280_temperature;BME280_humidity;BME280_pressure;Samples;Min_cycle;Max_cycle;Signal;HPM_P1;HPM_P2
2022/09/06 00:01:26;;;;;;;13.50;3.90;;;;;;;12.95;44.80;99815.41;105917;1276;96624;-64
2022/09/06 00:03:56;;;;;;;9.60;4.00;;;;;;;12.86;44.77;99809.30;105912;1276;113269;-64
2022/09/06 00:06:27;;;;;;;11.50;4.00;;;;;;;12.76;44.89;99808.85;105973;1276;96545;-66
2022/09/06 00:08:55;;;;;;;12.40;3.70;;;;;;;12.70;44.91;99810.21;106026;1276;108165;-66
2022/09/06 00:11:25;;;;;;;12.60;4.20;;;;;;;12.61;44.96;99811.52;105977;1276;96632;-64
2022/09/06 00:13:55;;;;;;;10.90;4.10;;;;;;;12.51;45.14;99808.67;105965;1276;99304;-66
2022/09/06 00:16:26;;;;;;;9.30;3.40;;;;;;;12.42;45.13;99805.52;105970;1276;112870;-62
2022/09/06 00:19:00;;;;;;;14.20;4.40;;;;;;;12.33;45.30;99809.68;106047;1276;96531;-63
2022/09/06 00:21:31;;;;;;;14.30;4.30;;;;;;;12.28;45.25;99804.38;106075;1276;108363;-64
2022/09/06 00:23:59;;;;;;;11.70;4.30;;;;;;;12.22;45.39;99798.91;105973;1276;99134;-64
2022/09/06 00:26:29;;;;;;;12.50;4.10;;;;;;;12.17;45.36;99798.65;105855;1277;99206;-61
2022/09/06 00:28:57;;;;;;;10.20;4.10;;;;;;;12.12;45.53;99798.13;106024;1277;113801;-65
2022/09/06 00:31:28;;;;;;;14.00;4.50;;;;;;;12.07;45.65;99794.36;106041;1276;100448;-61
2022/09/06 00:33:56;;;;;;;11.50;4.20;;;;;;;12.02;45.81;99794.69;106014;1276;107712;-61
2022/09/06 00:36:27;;;;;;;12.50;4.00;;;;;;;11.97;45.81;99794.27;105896;1277;99234;-61
2022/09/06 00:38:55;;;;;;;9.70;4.00;;;;;;;11.93;45.65;99798.83;106026;1276;96545;-64
2022/09/06 00:41:27;;;;;;;13.30;4.30;;;;;;;11.87;45.80;99801.35;106027;1276;113208;-58
2022/09/06 00:43:58;;;;;;;12.20;4.20;;;;;;;11.80;45.88;99797.55;106034;1276;99929;-60
2022/09/06 00:46:30;;;;;;;11.00;4.40;;;;;;;11.74;45.91;99798.66;106033;1276;108457;-65
2022/09/06 00:49:11;;;;;;;11.90;3.70;;;;;;;11.68;45.99;99794.61;105995;1277;99229;-59
2022/09/06 00:51:42;;;;;;;15.70;4.20;;;;;;;11.61;46.11;99792.21;106016;1276;99301;-63
2022/09/06 00:54:10;;;;;;;10.80;4.50;;;;;;;11.55;46.12;99797.03;105891;1276;112643;-65
2022/09/06 00:56:43;;;;;;;11.50;4.20;;;;;;;11.51;46.04;99798.86;105969;1276;97663;-65
2022/09/06 00:59:14;;;;;;;12.80;4.30;;;;;;;11.45;46.16;99790.91;105826;1279;108244;-65
2022/09/06 01:01:42;;;;;;;12.90;5.00;;;;;;;11.39;46.30;99793.44;105934;1276;99230;-62
2022/09/06 01:04:16;;;;;;;12.00;4.20;;;;;;;11.36;46.31;99789.56;105893;1277;99240;-66
2022/09/06 01:06:47;;;;;;;11.20;4.90;;;;;;;11.30;46.44;99789.26;106011;1275;113427;-64
2022/09/06 01:09:49;;;;;;;13.50;4.30;;;;;;;11.25;46.47;99790.27;106028;1276;99245;-60
2022/09/06 01:12:26;;;;;;;10.00;3.70;;;;;;;11.18;46.61;99786.98;105948;1276;106929;-61
2022/09/06 01:15:39;;;;;;;15.50;4.10;;;;;;;11.11;46.62;99791.30;105858;1277;96613;-62
2022/09/06 01:18:14;;;;;;;12.60;4.50;;;;;;;11.04;46.75;99793.55;105597;1279;99365;-62
2022/09/06 01:21:17;;;;;;;8.50;3.70;;;;;;;10.98;46.92;99794.61;105838;1276;113134;-61
2022/09/06 01:24:07;;;;;;;12.50;4.10;;;;;;;10.91;46.98;99797.52;105778;1279;98362;-64
2022/09/06 01:27:01;;;;;;;13.80;4.10;;;;;;;10.85;47.10;99799.11;105963;1277;108476;-62
2022/09/06 01:29:33;;;;;;;11.40;4.60;;;;;;;10.79;47.12;99796.13;105983;1276;98003;-65
2022/09/06 01:32:42;;;;;;;10.70;3.70;;;;;;;10.72;47.07;99795.17;106008;1277;99215;-64
2022/09/06 01:35:39;;;;;;;13.80;4.90;;;;;;;10.64;47.16;99795.65;105942;1276;113253;-66
2022/09/06 01:38:09;;;;;;;13.70;4.10;;;;;;;10.58;47.31;99796.91;105969;1276;97732;-65
2022/09/06 01:40:38;;;;;;;13.80;4.40;;;;;;;10.51;47.23;99797.11;106039;1276;107404;-63
2022/09/06 01:43:22;;;;;;;12.80;4.40;;;;;;;10.45;47.39;99799.08;106000;1276;99189;-64
2022/09/06 01:46:16;;;;;;;11.10;4.20;;;;;;;10.40;47.46;99802.02;105968;1276;99123;-65
2022/09/06 01:49:08;;;;;;;14.70;4.90;;;;;;;10.35;47.63;99801.96;106077;1276;112777;-61
2022/09/06 01:52:15;;;;;;;18.00;4.60;;;;;;;10.31;47.66;99807.88;106057;1276;99314;-60
2022/09/06 01:55:14;;;;;;;12.20;4.20;;;;;;;10.26;47.79;99812.42;105980;1276;109111;-63
2022/09/06 01:58:10;;;;;;;15.00;4.30;;;;;;;10.22;47.82;99806.96;105907;1274;99339;-59
2022/09/06 02:01:03;;;;;;;13.10;4.50;;;;;;;10.20;47.85;99807.09;105896;1277;99217;-60
2022/09/06 02:03:49;;;;;;;14.90;4.60;;;;;;;10.16;47.92;99804.52;105933;1276;113515;-64
2022/09/06 02:06:26;;;;;;;14.50;4.80;;;;;;;10.12;47.96;99801.86;105989;1276;99448;-65
2022/09/06 02:09:16;;;;;;;11.30;4.20;;;;;;;10.09;48.06;99800.97;105937;1277;106858;-64
2022/09/06 02:11:57;;;;;;;14.50;4.40;;;;;;;10.06;48.10;99800.31;106049;1276;99316;-60
2022/09/06 02:14:38;;;;;;;10.70;4.10;;;;;;;10.03;48.16;99802.42;106020;1276;97618;-64
2022/09/06 02:17:14;;;;;;;17.40;4.70;;;;;;;10.00;48.25;99807.35;105944;1276;112523;-64
2022/09/06 02:19:59;;;;;;;13.30;4.50;;;;;;;9.97;48.30;99803.63;105774;1276;99428;-62
2022/09/06 02:22:33;;;;;;;14.00;5.10;;;;;;;9.94;48.29;99805.23;105906;1275;106131;-64
2022/09/06 02:25:09;;;;;;;14.30;4.50;;;;;;;9.91;48.40;99801.33;105962;1276;99214;-63
2022/09/06 02:27:39;;;;;;;14.80;4.70;;;;;;;9.88;48.49;99801.33;106034;1276;98358;-66
2022/09/06 02:30:10;;;;;;;13.90;5.40;;;;;;;9.85;48.48;99793.35;106055;1276;113636;-63
2022/09/06 02:32:49;;;;;;;14.30;4.60;;;;;;;9.83;48.51;99789.58;106080;1276;99237;-64
2022/09/06 02:35:19;;;;;;;10.70;4.30;;;;;;;9.81;48.68;99793.92;106072;1276;108903;-64
2022/09/06 02:37:51;;;;;;;10.80;4.20;;;;;;;9.78;48.60;99793.05;106004;1276;99338;-65
2022/09/06 02:40:22;;;;;;;11.90;4.40;;;;;;;9.75;48.73;99789.67;105989;1276;99201;-65
2022/09/06 02:42:50;;;;;;;14.20;4.70;;;;;;;9.72;48.81;99788.40;105977;1276;112990;-63
2022/09/06 02:45:17;;;;;;;12.60;4.20;;;;;;;9.70;48.74;99790.33;105982;1279;96562;-63
2022/09/06 02:47:45;;;;;;;13.50;4.50;;;;;;;9.67;48.92;99790.81;105927;1276;107422;-63
2022/09/06 02:50:15;;;;;;;12.90;4.10;;;;;;;9.65;48.89;99789.68;106033;1276;99299;-62
2022/09/06 02:52:43;;;;;;;11.40;4.00;;;;;;;9.63;48.99;99793.34;106006;1276;99336;-64
2022/09/06 02:55:11;;;;;;;11.30;4.20;;;;;;;9.60;49.01;99795.47;106008;1276;113595;-64
2022/09/06 02:57:39;;;;;;;11.70;4.40;;;;;;;9.56;49.03;99791.82;106018;1276;99206;-63
2022/09/06 03:00:12;;;;;;;12.90;4.50;;;;;;;9.53;49.12;99789.85;105935;1276;108388;-64
2022/09/06 03:02:40;;;;;;;10.80;4.20;;;;;;;9.51;49.24;99783.93;105990;1276;99270;-65
2022/09/06 03:05:10;;;;;;;13.60;4.60;;;;;;;9.50;49.32;99781.15;105972;1277;98372;-65
2022/09/06 03:07:38;;;;;;;13.30;4.60;;;;;;;9.49;49.29;99778.95;106005;1277;112377;-64
2022/09/06 03:10:09;;;;;;;14.10;4.70;;;;;;;9.47;49.36;99779.58;106058;1276;99257;-63
2022/09/06 03:12:37;;;;;;;12.20;4.20;;;;;;;9.44;49.40;99776.58;106029;1276;107870;-66
2022/09/06 03:15:10;;;;;;;12.80;4.40;;;;;;;9.38;49.47;99780.08;106020;1276;99821;-66
2022/09/06 03:17:41;;;;;;;11.30;4.30;;;;;;;9.34;49.40;99777.15;106021;1276;97986;-65
2022/09/06 03:20:12;;;;;;;12.70;4.60;;;;;;;9.30;49.63;99778.23;106010;1276;112857;-62
2022/09/06 03:22:42;;;;;;;13.50;4.60;;;;;;;9.27;49.52;99770.42;105954;1277;99253;-65
2022/09/06 03:25:10;;;;;;;10.60;4.10;;;;;;;9.24;49.69;99770.39;105862;1276;108418;-65
2022/09/06 03:27:39;;;;;;;12.20;4.30;;;;;;;9.22;49.80;99767.14;105835;1276;98365;-64
2022/09/06 03:30:11;;;;;;;16.90;5.20;;;;;;;9.19;49.74;99766.27;105764;1277;98164;-63
2022/09/06 03:32:38;;;;;;;12.30;4.20;;;;;;;9.16;49.92;99764.49;105674;1276;113320;-65
2022/09/06 03:35:10;;;;;;;13.50;4.60;;;;;;;9.14;49.84;99766.55;105788;1279;99467;-65
2022/09/06 03:37:38;;;;;;;13.00;5.00;;;;;;;9.12;50.01;99765.76;105836;1278;108277;-63
2022/09/06 03:40:11;;;;;;;13.10;4.50;;;;;;;9.11;50.12;99766.16;105812;1278;99297;-64
2022/09/06 03:42:39;;;;;;;14.20;4.40;;;;;;;9.10;50.00;99765.69;105935;1277;98371;-65
2022/09/06 03:45:08;;;;;;;12.40;4.20;;;;;;;9.07;50.11;99769.55;105931;1278;113539;-63
2022/09/06 03:47:37;;;;;;;16.00;4.70;;;;;;;9.05;50.16;99767.89;106001;1279;97298;-64
2022/09/06 03:50:08;;;;;;;13.50;4.20;;;;;;;9.02;50.15;99766.30;105882;1278;108392;-64
2022/09/06 03:52:36;;;;;;;12.30;4.40;;;;;;;8.98;50.27;99762.30;106017;1276;99184;-65
2022/09/06 03:55:08;;;;;;;15.20;4.30;;;;;;;8.95;50.24;99759.64;102288;1277;4809550;-64
2022/09/06 03:57:35;;;;;;;11.90;4.30;;;;;;;8.93;50.42;99757.79;105891;1277;112505;-66
2022/09/06 04:00:07;;;;;;;14.80;4.30;;;;;;;8.90;50.49;99756.50;105796;1277;99194;-65
2022/09/06 04:02:35;;;;;;;13.70;4.80;;;;;;;8.88;50.39;99761.58;105717;1279;107084;-66
2022/09/06 04:05:03;;;;;;;16.80;4.30;;;;;;;8.87;50.54;99759.70;105774;1279;99325;-62
2022/09/06 04:07:36;;;;;;;11.40;4.20;;;;;;;8.84;50.48;99760.04;105880;1276;99121;-65
2022/09/06 04:10:08;;;;;;;14.70;4.60;;;;;;;8.83;50.81;99757.96;105818;1277;113826;-65
2022/09/06 04:12:36;;;;;;;9.60;4.20;;;;;;;8.81;50.81;99753.28;105971;1276;98445;-68
2022/09/06 04:15:08;;;;;;;15.10;4.50;;;;;;;8.79;50.71;99752.89;105814;1276;108409;-66
2022/09/06 04:17:36;;;;;;;15.30;5.10;;;;;;;8.76;50.78;99752.83;105915;1277;97668;-66
2022/09/06 04:20:09;;;;;;;15.00;4.90;;;;;;;8.74;50.74;99753.14;105871;1279;99364;-69
2022/09/06 04:22:37;;;;;;;15.30;4.50;;;;;;;8.70;50.96;99756.16;105931;1278;112125;-65
2022/09/06 04:25:09;;;;;;;13.70;5.10;;;;;;;8.69;50.97;99756.27;105796;1279;99187;-64
2022/09/06 04:27:37;;;;;;;16.50;5.30;;;;;;;8.68;50.99;99754.54;105795;1277;107848;-64
2022/09/06 04:30:08;;;;;;;12.40;4.70;;;;;;;8.68;51.17;99754.02;105810;1279;98011;-64
2022/09/06 04:32:36;;;;;;;12.60;4.80;;;;;;;8.68;51.18;99754.36;105792;1278;99203;-64
2022/09/06 04:35:07;;;;;;;14.60;5.10;;;;;;;8.68;51.27;99759.86;105802;1278;113262;-66
2022/09/06 04:37:35;;;;;;;15.40;4.80;;;;;;;8.67;51.20;99757.78;105893;1277;99312;-66
2022/09/06 04:40:06;;;;;;;16.00;5.50;;;;;;;8.66;51.37;99755.52;105947;1276;107320;-65
2022/09/06 04:42:34;;;;;;;16.10;5.50;;;;;;;8.68;51.48;99755.79;106043;1277;99884;-64
2022/09/06 04:45:09;;;;;;;15.40;5.80;;;;;;;8.70;51.44;99750.73;105892;1279;99188;-65
2022/09/06 04:47:37;;;;;;;14.40;5.30;;;;;;;8.70;51.67;99749.49;105916;1279;112371;-62
2022/09/06 04:50:09;;;;;;;17.90;6.30;;;;;;;8.71;51.67;99749.60;105911;1279;99313;-64
2022/09/06 04:52:37;;;;;;;19.30;5.90;;;;;;;8.72;51.69;99754.48;105863;1279;107745;-64
2022/09/06 04:55:08;;;;;;;17.80;5.60;;;;;;;8.73;51.70;99754.23;105899;1276;96667;-64
2022/09/06 04:57:36;;;;;;;16.40;5.30;;;;;;;8.73;51.72;99755.67;105979;1276;96653;-64
2022/09/06 05:00:18;;;;;;;18.60;6.00;;;;;;;8.74;51.74;99758.46;105974;1277;113446;-61
2022/09/06 05:02:46;;;;;;;18.70;6.10;;;;;;;8.75;51.89;99756.43;106058;1277;99343;-62
2022/09/06 05:05:15;;;;;;;17.70;6.00;;;;;;;8.76;51.87;99754.80;105836;1279;106887;-64
2022/09/06 05:07:43;;;;;;;17.00;5.60;;;;;;;8.77;51.97;99758.84;105915;1277;99316;-62
2022/09/06 05:10:12;;;;;;;14.60;5.70;;;;;;;8.77;51.93;99760.02;105858;1277;99266;-64
2022/09/06 05:12:40;;;;;;;14.90;5.00;;;;;;;8.79;52.06;99759.92;106053;1276;113373;-60
2022/09/06 05:15:11;;;;;;;16.10;5.90;;;;;;;8.82;52.06;99760.52;105974;1277;99246;-60
2022/09/06 05:17:39;;;;;;;17.30;6.20;;;;;;;8.83;52.24;99760.98;106073;1277;108385;-66
2022/09/06 05:20:10;;;;;;;18.00;6.00;;;;;;;8.86;52.20;99761.53;105930;1278;97483;-66
2022/09/06 05:22:39;;;;;;;16.00;5.90;;;;;;;8.88;52.30;99761.42;106094;1276;96548;-60
2022/09/06 05:25:08;;;;;;;19.00;6.40;;;;;;;8.89;52.33;99765.60;106031;1278;112793;-68
2022/09/06 05:27:36;;;;;;;19.00;6.50;;;;;;;8.91;52.44;99758.95;106091;1277;99314;-67
2022/09/06 05:30:06;;;;;;;18.50;6.30;;;;;;;8.94;52.44;99756.66;106045;1277;108166;-66
2022/09/06 05:32:34;;;;;;;20.40;6.90;;;;;;;8.98;52.58;99759.12;105868;1278;99130;-65
2022/09/06 05:35:02;;;;;;;19.90;7.60;;;;;;;9.01;52.60;99761.61;105855;1277;99245;-66
2022/09/06 05:37:30;;;;;;;21.70;9.10;;;;;;;9.04;52.62;99760.70;106009;1277;112582;-66
2022/09/06 05:39:59;;;;;;;22.90;10.20;;;;;;;9.08;52.77;99763.50;106011;1276;96618;-64
2022/09/06 05:42:27;;;;;;;25.10;10.60;;;;;;;9.13;52.77;99767.13;106084;1277;107329;-64
2022/09/06 05:44:54;;;;;;;25.40;10.70;;;;;;;9.18;52.92;99770.22;106103;1277;99805;-63
2022/09/06 05:47:23;;;;;;;21.60;7.80;;;;;;;9.24;52.93;99770.58;106124;1277;99234;-61
2022/09/06 05:49:53;;;;;;;20.10;6.80;;;;;;;9.29;53.04;99771.55;105964;1277;113338;-65
2022/09/06 05:52:21;;;;;;;20.00;6.20;;;;;;;9.35;53.14;99769.98;106131;1277;99226;-63
2022/09/06 05:54:49;;;;;;;21.60;6.70;;;;;;;9.41;53.09;99765.93;106091;1276;110545;-64
2022/09/06 05:57:17;;;;;;;23.60;6.90;;;;;;;9.46;53.17;99768.82;106074;1276;99231;-67
2022/09/06 05:59:44;;;;;;;20.90;7.50;;;;;;;9.53;53.21;99767.21;105960;1278;99812;-66
2022/09/06 06:02:12;;;;;;;21.80;7.00;;;;;;;9.59;53.25;99765.46;105992;1277;113348;-66
2022/09/06 06:04:40;;;;;;;21.50;7.40;;;;;;;9.66;53.36;99765.75;105992;1277;96525;-65
2022/09/06 06:07:08;;;;;;;20.30;6.90;;;;;;;9.73;53.42;99770.12;105987;1277;108434;-62
2022/09/06 06:09:37;;;;;;;20.30;7.00;;;;;;;9.81;53.44;99768.62;105864;1278;96686;-64
2022/09/06 06:12:05;;;;;;;25.40;7.10;;;;;;;9.89;53.46;99769.06;106003;1277;99157;-66
2022/09/06 06:14:33;;;;;;;21.30;7.70;;;;;;;9.96;53.57;99773.03;106023;1276;112768;-66
2022/09/06 06:17:01;;;;;;;20.60;6.60;;;;;;;10.04;53.61;99774.20;106011;1277;99292;-65
2022/09/06 06:19:30;;;;;;;17.70;6.90;;;;;;;10.11;53.54;99770.36;105986;1277;107789;-65
2022/09/06 06:21:58;;;;;;;20.40;6.80;;;;;;;10.20;53.58;99770.75;105959;1276;99319;-62
2022/09/06 06:24:26;;;;;;;17.80;6.80;;;;;;;10.27;53.66;99771.42;105998;1276;96808;-63
2022/09/06 06:26:55;;;;;;;19.80;6.30;;;;;;;10.34;53.64;99772.23;106021;1276;114440;-66
2022/09/06 06:29:24;;;;;;;22.60;6.60;;;;;;;10.41;53.71;99775.21;106046;1277;99352;-64
2022/09/06 06:31:52;;;;;;;22.70;6.50;;;;;;;10.49;53.81;99773.70;106055;1276;108245;-65
2022/09/06 06:34:21;;;;;;;20.70;7.10;;;;;;;10.56;53.95;99773.92;106002;1277;99248;-63
2022/09/06 06:36:49;;;;;;;21.60;7.30;;;;;;;10.64;53.90;99774.72;106053;1277;99341;-65
2022/09/06 06:39:17;;;;;;;21.40;7.60;;;;;;;10.71;53.95;99775.48;106011;1276;112481;-66
2022/09/06 06:41:48;;;;;;;21.90;5.90;;;;;;;10.78;53.99;99773.85;105960;1277;99016;-65
2022/09/06 06:44:16;;;;;;;18.20;6.70;;;;;;;10.86;54.03;99773.16;105985;1277;108313;-61
2022/09/06 06:46:44;;;;;;;17.00;6.50;;;;;;;10.94;54.14;99774.26;105984;1276;99244;-63
2022/09/06 06:49:12;;;;;;;15.80;5.50;;;;;;;11.02;54.16;99775.17;106013;1276;99233;-64
2022/09/06 06:51:40;;;;;;;16.10;5.60;;;;;;;11.12;54.14;99778.30;106021;1277;113394;-62
2022/09/06 06:54:08;;;;;;;24.00;6.30;;;;;;;11.22;54.19;99781.91;105983;1276;99221;-65
2022/09/06 06:56:39;;;;;;;17.60;6.20;;;;;;;11.32;54.25;99780.73;106005;1277;108389;-70
2022/09/06 06:59:07;;;;;;;19.50;6.20;;;;;;;11.41;54.15;99782.28;106019;1277;99227;-66
2022/09/06 07:01:36;;;;;;;22.30;6.20;;;;;;;11.52;54.23;99783.20;105990;1276;100020;-67
2022/09/06 07:04:05;;;;;;;17.70;6.70;;;;;;;11.61;54.27;99781.89;105979;1276;113457;-63
2022/09/06 07:06:55;;;;;;;19.60;6.20;;;;;;;11.70;54.40;99779.34;105849;1278;99313;-65
2022/09/06 07:09:42;;;;;;;15.10;5.60;;;;;;;11.82;54.34;99784.10;105862;1277;108228;-65
2022/09/06 07:12:30;;;;;;;18.90;5.90;;;;;;;11.94;54.44;99781.67;105901;1277;99332;-65
2022/09/06 07:14:59;;;;;;;21.10;6.00;;;;;;;12.06;54.47;99783.10;105912;1277;99236;-65
2022/09/06 07:17:28;;;;;;;20.70;6.30;;;;;;;12.18;54.31;99785.65;105973;1276;113487;-68
2022/09/06 07:19:56;;;;;;;15.10;5.30;;;;;;;12.31;54.35;99785.84;106030;1277;97745;-64
2022/09/06 07:22:42;;;;;;;20.70;6.10;;;;;;;12.45;54.54;99787.36;105975;1277;108408;-66
2022/09/06 07:25:12;;;;;;;22.00;6.90;;;;;;;12.72;54.21;99785.67;105832;1277;98395;-64
2022/09/06 07:27:54;;;;;;;20.10;6.60;;;;;;;14.25;52.71;99787.60;106004;1277;99304;-65
2022/09/06 07:30:23;;;;;;;17.20;5.90;;;;;;;15.91;52.17;99781.73;105840;1278;113363;-63
2022/09/06 07:32:51;;;;;;;21.10;6.00;;;;;;;17.39;52.12;99774.29;105855;1277;99343;-64
2022/09/06 07:35:20;;;;;;;20.90;6.40;;;;;;;18.74;51.94;99781.44;105880;1277;107709;-66
2022/09/06 07:38:00;;;;;;;17.50;6.20;;;;;;;19.75;52.15;99778.52;106062;1277;99256;-65
2022/09/06 07:40:29;;;;;;;18.10;6.30;;;;;;;20.40;52.66;99777.31;106128;1277;99251;-65
2022/09/06 07:42:58;;;;;;;14.60;5.30;;;;;;;21.14;52.51;99773.23;106055;1277;113630;-66
2022/09/06 07:45:27;;;;;;;18.60;5.70;;;;;;;22.36;51.84;99775.66;105984;1278;98929;-66
2022/09/06 07:47:59;;;;;;;17.10;5.50;;;;;;;23.77;51.22;99778.06;106009;1277;108404;-63
2022/09/06 07:50:30;;;;;;;13.30;4.40;;;;;;;25.14;50.87;99772.83;106119;1277;99737;-65
2022/09/06 07:53:19;;;;;;;12.90;4.20;;;;;;;26.49;50.03;99775.90;106061;1278;99251;-65
2022/09/06 07:56:04;;;;;;;15.30;5.30;;;;;;;27.72;49.92;99770.64;106115;1277;113482;-68
2022/09/06 07:58:33;;;;;;;13.20;4.60;;;;;;;28.81;49.73;99768.09;105944;1278;99008;-65
2022/09/06 08:01:25;;;;;;;14.70;5.10;;;;;;;29.71;49.45;99763.16;105878;1277;107812;-64
2022/09/06 08:03:53;;;;;;;18.60;5.20;;;;;;;30.78;49.03;99757.86;105990;1276;97145;-66
2022/09/06 08:06:23;;;;;;;20.20;4.90;;;;;;;31.52;48.57;99764.00;105996;1277;99220;-65
2022/09/06 08:08:52;;;;;;;14.00;4.30;;;;;;;32.09;47.99;99758.91;106004;1277;112827;-64
2022/09/06 08:11:27;;;;;;;10.00;3.60;;;;;;;32.69;47.81;99759.79;105936;1278;97021;-68
2022/09/06 08:13:59;;;;;;;15.10;4.10;;;;;;;33.15;47.04;99763.32;105915;1277;108197;-66
2022/09/06 08:16:29;;;;;;;9.00;3.90;;;;;;;33.58;46.85;99767.41;106022;1278;98425;-65
2022/09/06 08:19:03;;;;;;;12.80;3.90;;;;;;;34.01;46.16;99769.97;106047;1277;99305;-65
2022/09/06 08:21:32;;;;;;;11.40;3.90;;;;;;;34.18;45.64;99769.74;106038;1278;113311;-65
2022/09/06 08:24:03;;;;;;;12.00;3.50;;;;;;;34.42;45.43;99761.20;106058;1276;99068;-65
2022/09/06 08:26:35;;;;;;;14.20;3.30;;;;;;;34.60;44.81;99762.69;105960;1278;109192;-65
2022/09/06 08:29:07;;;;;;;7.50;2.90;;;;;;;34.86;44.22;99760.88;105999;1277;97661;-65
2022/09/06 08:31:42;;;;;;;8.50;3.20;;;;;;;35.12;43.80;99758.96;105925;1281;99195;-67
2022/09/06 08:34:11;;;;;;;15.50;4.90;;;;;;;35.13;42.86;99758.04;105986;1277;112350;-66
2022/09/06 08:36:41;;;;;;;18.00;6.80;;;;;;;35.30;42.70;99759.17;106047;1277;97939;-65
2022/09/06 08:39:10;;;;;;;11.40;3.50;;;;;;;35.25;41.71;99765.80;105873;1277;107771;-65
2022/09/06 08:42:02;;;;;;;13.60;3.70;;;;;;;35.26;41.13;99770.28;105873;1277;99314;-66
2022/09/06 08:44:47;;;;;;;12.80;3.70;;;;;;;35.35;40.62;99773.05;105892;1277;96563;-67
2022/09/06 08:47:21;;;;;;;14.20;4.00;;;;;;;35.30;39.63;99772.49;105915;1277;113386;-66
2022/09/06 08:49:53;;;;;;;13.10;3.40;;;;;;;35.30;39.64;99769.13;105925;1278;98374;-66
2022/09/06 08:52:51;;;;;;;7.30;3.00;;;;;;;35.38;39.02;99771.21;105872;1277;108670;-66
2022/09/06 08:56:02;;;;;;;7.60;3.10;;;;;;;35.49;38.49;99771.11;105821;1278;96633;-66
2022/09/06 08:59:05;;;;;;;9.80;2.70;;;;;;;35.66;37.88;99760.00;106039;1277;99198;-65
2022/09/06 09:01:49;;;;;;;5.60;2.70;;;;;;;35.35;37.12;99755.64;105997;1278;113619;-65
2022/09/06 09:04:23;;;;;;;12.80;4.90;;;;;;;35.20;36.93;99757.13;105982;1277;99221;-66
2022/09/06 09:06:59;;;;;;;12.30;4.60;;;;;;;35.24;36.71;99753.90;106036;1277;107789;-66
2022/09/06 09:09:30;;;;;;;12.60;3.90;;;;;;;35.19;36.05;99746.77;106013;1277;100352;-63
2022/09/06 09:12:00;;;;;;;14.80;3.50;;;;;;;34.82;35.49;99744.52;106003;1276;96531;-66
2022/09/06 09:14:34;;;;;;;8.30;3.00;;;;;;;34.29;34.81;99745.96;106020;1277;113306;-66
2022/09/06 09:17:15;;;;;;;18.80;4.20;;;;;;;34.05;34.62;99742.65;105912;1278;99194;-67
2022/09/06 09:19:43;;;;;;;10.10;3.30;;;;;;;33.70;34.11;99736.09;105867;1277;108407;-67
2022/09/06 09:22:16;;;;;;;9.60;2.90;;;;;;;33.64;34.18;99734.72;105885;1277;99294;-65
2022/09/06 09:24:47;;;;;;;9.30;3.00;;;;;;;33.84;33.65;99734.89;106058;1275;99102;-63
2022/09/06 09:27:20;;;;;;;10.30;3.10;;;;;;;34.01;33.33;99730.94;105995;1277;113048;-65
2022/09/06 09:29:54;;;;;;;11.80;3.10;;;;;;;34.05;33.29;99731.17;106011;1277;97105;-65
2022/09/06 09:32:45;;;;;;;11.10;3.50;;;;;;;34.27;33.02;99729.10;105912;1277;108772;-65
2022/09/06 09:35:20;;;;;;;9.40;2.90;;;;;;;34.45;32.65;99721.91;105859;1277;99226;-65
2022/09/06 09:38:06;;;;;;;5.50;2.50;;;;;;;34.58;32.18;99724.55;106076;1277;99268;-65
2022/09/06 09:40:52;;;;;;;9.50;3.00;;;;;;;34.36;31.75;99728.40;106064;1277;113595;-66
2022/09/06 09:43:20;;;;;;;11.00;5.10;;;;;;;34.38;31.91;99721.41;105982;1277;96539;-66
2022/09/06 09:46:13;;;;;;;9.80;3.50;;;;;;;34.64;31.87;99719.31;105939;1277;108483;-64
2022/09/06 09:49:03;;;;;;;7.60;2.60;;;;;;;34.45;31.26;99715.06;105981;1277;99304;-65
2022/09/06 09:51:42;;;;;;;12.00;2.60;;;;;;;33.92;31.06;99711.58;105912;1277;99341;-65
2022/09/06 09:54:28;;;;;;;6.30;2.30;;;;;;;33.32;30.73;99714.53;105919;1277;113515;-66
2022/09/06 09:56:57;;;;;;;8.20;2.20;;;;;;;32.75;30.82;99720.58;106130;1275;99693;-66
2022/09/06 09:59:38;;;;;;;6.10;2.60;;;;;;;32.20;30.28;99714.55;106101;1277;107412;-65
2022/09/06 10:02:26;;;;;;;4.20;2.20;;;;;;;31.59;30.19;99714.34;106023;1277;99283;-66
2022/09/06 10:05:02;;;;;;;6.00;3.00;;;;;;;31.08;29.92;99711.47;106039;1276;99247;-65
2022/09/06 10:07:32;;;;;;;13.20;3.10;;;;;;;30.65;29.71;99711.36;105966;1277;113364;-65
2022/09/06 10:10:05;;;;;;;6.80;2.60;;;;;;;30.15;29.43;99704.30;106078;1276;97028;-66
2022/09/06 10:12:39;;;;;;;8.20;2.50;;;;;;;29.66;29.13;99705.98;106038;1277;108430;-65
2022/09/06 10:15:10;;;;;;;11.80;2.90;;;;;;;29.23;29.07;99705.34;106049;1277;99310;-65
2022/09/06 10:17:50;;;;;;;4.80;2.30;;;;;;;28.78;28.98;99700.85;106074;1277;99419;-65
2022/09/06 10:20:26;;;;;;;5.70;2.60;;;;;;;28.46;28.85;99697.18;106025;1277;113336;-65
2022/09/06 10:23:04;;;;;;;5.80;2.30;;;;;;;28.13;28.48;99701.47;106033;1277;99063;-65
2022/09/06 10:25:45;;;;;;;9.20;2.40;;;;;;;27.83;28.69;99697.42;106006;1277;107769;-67
2022/09/06 10:28:42;;;;;;;9.40;2.50;;;;;;;27.53;28.58;99699.44;106042;1276;99320;-68
2022/09/06 10:31:46;;;;;;;17.90;4.10;;;;;;;27.08;28.37;99694.68;106046;1277;97580;-65
2022/09/06 10:34:42;;;;;;;8.10;2.90;;;;;;;26.75;28.31;99693.79;105984;1277;112776;-66
2022/09/06 10:37:22;;;;;;;6.30;2.50;;;;;;;26.46;28.19;99690.34;105974;1277;99527;-65
2022/09/06 10:40:08;;;;;;;6.50;2.30;;;;;;;26.18;28.11;99692.13;105957;1277;108408;-65
2022/09/06 10:42:51;;;;;;;6.80;2.60;;;;;;;26.05;27.99;99688.36;105958;1277;99221;-65
2022/09/06 10:45:35;;;;;;;5.60;2.00;;;;;;;25.92;28.04;99686.63;106005;1276;99244;-68
2022/09/06 10:48:17;;;;;;;5.80;2.30;;;;;;;25.89;28.15;99684.46;105957;1276;113492;-66
2022/09/06 10:51:00;;;;;;;8.50;2.60;;;;;;;25.87;27.96;99681.30;105950;1277;99260;-67
2022/09/06 10:53:33;;;;;;;;;;;;;;;25.74;27.93;99679.31;106088;1275;106843;-69
2022/09/06 10:56:07;;;;;;;8.10;1.90;;;;;;;25.57;28.02;99679.36;105983;1277;99829;-65
2022/09/06 10:58:51;;;;;;;5.50;1.80;;;;;;;25.46;28.04;99677.98;105987;1277;99336;-63
2022/09/06 11:01:52;;;;;;;4.30;1.40;;;;;;;25.33;27.88;99672.68;105982;1277;112311;-67
2022/09/06 11:04:43;;;;;;;3.70;2.00;;;;;;;25.23;28.02;99669.19;106050;1277;99417;-69
2022/09/06 11:07:43;;;;;;;5.30;2.20;;;;;;;25.14;27.90;99663.27;105913;1279;108296;-66
2022/09/06 11:10:44;;;;;;;5.90;1.90;;;;;;;25.10;27.91;99657.02;106026;1277;99274;-65
2022/09/06 11:13:16;;;;;;;4.60;2.00;;;;;;;24.94;27.64;99650.20;105963;1277;99286;-65
2022/09/06 11:16:17;;;;;;;5.80;1.80;;;;;;;24.76;27.82;99645.76;105955;1277;113429;-64
2022/09/06 11:19:04;;;;;;;4.60;2.20;;;;;;;24.70;27.77;99642.34;106020;1278;99270;-64
2022/09/06 11:22:02;;;;;;;7.70;2.60;;;;;;;24.70;27.91;99639.34;105919;1277;107787;-65
2022/09/06 11:24:57;;;;;;;4.60;1.90;;;;;;;24.68;27.88;99635.21;105899;1277;96740;-65
2022/09/06 11:27:44;;;;;;;4.50;2.00;;;;;;;24.68;27.78;99635.75;105976;1277;99235;-65
2022/09/06 11:30:15;;;;;;;8.40;2.30;;;;;;;24.69;27.94;99633.16;105971;1277;113686;-65
2022/09/06 11:33:00;;;;;;;6.60;2.10;;;;;;;24.69;27.84;99634.08;105977;1276;99248;-67
2022/09/06 11:35:33;;;;;;;5.80;2.30;;;;;;;24.65;27.77;99626.19;105996;1276;108350;-67
2022/09/06 11:38:14;;;;;;;7.30;2.50;;;;;;;24.68;27.95;99626.38;106020;1276;99368;-66
2022/09/06 11:40:52;;;;;;;8.30;2.50;;;;;;;24.69;27.80;99621.92;106067;1276;99329;-66
2022/09/06 11:43:52;;;;;;;7.90;2.40;;;;;;;24.67;27.84;99621.63;106031;1276;113006;-68
2022/09/06 11:46:47;;;;;;;3.90;2.30;;;;;;;24.69;27.87;99615.01;106013;1276;96786;-65
2022/09/06 11:49:34;;;;;;;7.70;2.30;;;;;;;24.70;27.90;99612.54;105670;1279;108426;-64
2022/09/06 11:52:40;;;;;;;3.60;2.20;;;;;;;24.73;28.01;99607.70;105987;1276;99364;-65
2022/09/06 11:55:11;;;;;;;5.40;2.00;;;;;;;24.66;27.99;99602.50;105990;1277;99354;-67
2022/09/06 11:57:41;;;;;;;6.40;1.80;;;;;;;24.60;27.92;99598.24;106001;1277;113392;-65